sensor_id;sensor_type;location;lat;lon;timestamp;temperature;humidity
1461;DHT22;724;49.910;12.530;2024-03-07T00:01:57;-1.80;1.00
1461;DHT22;724;49.910;12.530;2024-03-07T00:04:24;-1.80;1.00
1461;DHT22;724;49.910;12.530;2024-03-07T00:06:51;-1.80;1.00
1461;DHT22;724;49.910;12.530;2024-03-07T00:09:17;-1.90;1.00
1461;DHT22;724;49.910;12.530;2024-03-07T00:11:44;-1.90;1.00
1461;DHT22;724;49.910;12.530;2024-03-07T00:14:11;-1.90;1.00
1461;DHT22;724;49.910;12.530;2024-03-07T00:16:38;-1.90;1.00
1461;DHT22;724;49.910;12.530;2024-03-07T00:19:07;-1.90;1.00
1461;DHT22;724;49.910;12.530;2024-03-07T00:21:33;-1.90;1.00
1461;DHT22;724;49.910;12.530;2024-03-07T00:24:00;-1.80;1.00
1461;DHT22;724;49.910;12.530;2024-03-07T00:26:27;-1.90;1.00
1461;DHT22;724;49.910;12.530;2024-03-07T00:28:55;-1.90;1.00
1461;DHT22;724;49.910;12.530;2024-03-07T00:31:23;-2.00;1.00
1461;DHT22;724;49.910;12.530;2024-03-07T00:33:49;-2.00;1.00
1461;DHT22;724;49.910;12.530;2024-03-07T00:36:18;-2.10;1.00
1461;DHT22;724;49.910;12.530;2024-03-07T00:38:46;-2.00;1.00
1461;DHT22;724;49.910;12.530;2024-03-07T00:41:13;-2.10;1.00
1461;DHT22;724;49.910;12.530;2024-03-07T00:43:42;-2.10;1.00
1461;DHT22;724;49.910;12.530;2024-03-07T00:46:09;-2.10;1.00
1461;DHT22;724;49.910;12.530;2024-03-07T00:48:36;-2.20;1.00
1461;DHT22;724;49.910;12.530;2024-03-07T00:51:03;-2.20;1.00
1461;DHT22;724;49.910;12.530;2024-03-07T00:53:31;-2.20;1.00
1461;DHT22;724;49.910;12.530;2024-03-07T00:55:58;-2.30;1.00
1461;DHT22;724;49.910;12.530;2024-03-07T00:58:25;-2.40;1.00
1461;DHT22;724;49.910;12.530;2024-03-07T01:00:54;-2.30;85.30
1461;DHT22;724;49.910;12.530;2024-03-07T01:03:21;-2.30;99.90
1461;DHT22;724;49.910;12.530;2024-03-07T01:05:49;-2.30;99.90
1461;DHT22;724;49.910;12.530;2024-03-07T01:08:16;-2.30;99.90
1461;DHT22;724;49.910;12.530;2024-03-07T01:10:44;-2.30;99.90
1461;DHT22;724;49.910;12.530;2024-03-07T01:13:11;-2.30;99.90
1461;DHT22;724;49.910;12.530;2024-03-07T01:15:44;-2.30;99.90
1461;DHT22;724;49.910;12.530;2024-03-07T01:18:11;-2.30;90.20
1461;DHT22;724;49.910;12.530;2024-03-07T01:20:38;-2.30;68.10
1461;DHT22;724;49.910;12.530;2024-03-07T01:23:05;-2.30;54.90
1461;DHT22;724;49.910;12.530;2024-03-07T01:25:33;-2.30;99.90
1461;DHT22;724;49.910;12.530;2024-03-07T01:28:01;-2.30;99.90
1461;DHT22;724;49.910;12.530;2024-03-07T01:30:29;-2.20;99.90
1461;DHT22;724;49.910;12.530;2024-03-07T01:32:56;-2.40;13.70
1461;DHT22;724;49.910;12.530;2024-03-07T01:35:23;-2.40;28.80
1461;DHT22;724;49.910;12.530;2024-03-07T01:37:50;-2.30;76.00
1461;DHT22;724;49.910;12.530;2024-03-07T01:40:17;-2.40;56.90
1461;DHT22;724;49.910;12.530;2024-03-07T01:42:47;-2.50;1.00
1461;DHT22;724;49.910;12.530;2024-03-07T01:45:15;-2.50;49.80
1461;DHT22;724;49.910;12.530;2024-03-07T01:47:44;-2.60;1.00
1461;DHT22;724;49.910;12.530;2024-03-07T01:50:11;-2.60;1.00
1461;DHT22;724;49.910;12.530;2024-03-07T01:52:39;-2.70;1.00
1461;DHT22;724;49.910;12.530;2024-03-07T01:55:07;-2.60;67.60
1461;DHT22;724;49.910;12.530;2024-03-07T01:57:35;-2.50;99.90
1461;DHT22;724;49.910;12.530;2024-03-07T02:00:02;-2.50;99.90
1461;DHT22;724;49.910;12.530;2024-03-07T02:02:33;-2.50;99.90
1461;DHT22;724;49.910;12.530;2024-03-07T02:05:00;-2.50;98.10
1461;DHT22;724;49.910;12.530;2024-03-07T02:07:27;-2.40;69.40
1461;DHT22;724;49.910;12.530;2024-03-07T02:09:59;-2.30;20.80
1461;DHT22;724;49.910;12.530;2024-03-07T02:12:26;-2.20;1.00
1461;DHT22;724;49.910;12.530;2024-03-07T02:14:55;-2.10;1.00
1461;DHT22;724;49.910;12.530;2024-03-07T02:17:22;-2.10;1.00
1461;DHT22;724;49.910;12.530;2024-03-07T02:19:50;-2.10;1.00
1461;DHT22;724;49.910;12.530;2024-03-07T02:22:19;-2.10;1.00
1461;DHT22;724;49.910;12.530;2024-03-07T02:24:46;-2.00;1.00
1461;DHT22;724;49.910;12.530;2024-03-07T02:27:12;-1.90;1.00
1461;DHT22;724;49.910;12.530;2024-03-07T02:29:40;-1.90;1.00
1461;DHT22;724;49.910;12.530;2024-03-07T02:32:07;-1.80;1.00
1461;DHT22;724;49.910;12.530;2024-03-07T02:34:35;-1.80;1.00
1461;DHT22;724;49.910;12.530;2024-03-07T02:37:02;-1.70;1.00
1461;DHT22;724;49.910;12.530;2024-03-07T02:39:30;-1.70;1.00
1461;DHT22;724;49.910;12.530;2024-03-07T02:41:57;-1.70;1.00
1461;DHT22;724;49.910;12.530;2024-03-07T02:44:23;-1.70;1.00
1461;DHT22;724;49.910;12.530;2024-03-07T02:46:50;-1.60;1.00
1461;DHT22;724;49.910;12.530;2024-03-07T02:49:17;-1.60;1.00
1461;DHT22;724;49.910;12.530;2024-03-07T02:51:44;-1.50;1.00
1461;DHT22;724;49.910;12.530;2024-03-07T02:54:11;-1.40;1.00
1461;DHT22;724;49.910;12.530;2024-03-07T02:56:39;-1.40;1.00
1461;DHT22;724;49.910;12.530;2024-03-07T02:59:06;-1.30;1.00
1461;DHT22;724;49.910;12.530;2024-03-07T03:01:33;-1.30;1.00
1461;DHT22;724;49.910;12.530;2024-03-07T03:04:00;-1.20;1.00
1461;DHT22;724;49.910;12.530;2024-03-07T03:06:28;-1.20;1.00
1461;DHT22;724;49.910;12.530;2024-03-07T03:08:55;-1.10;1.00
1461;DHT22;724;49.910;12.530;2024-03-07T03:11:21;-1.10;1.00
1461;DHT22;724;49.910;12.530;2024-03-07T03:13:49;-1.00;1.00
1461;DHT22;724;49.910;12.530;2024-03-07T03:16:16;-1.10;1.00
1461;DHT22;724;49.910;12.530;2024-03-07T03:18:43;-1.10;1.00
1461;DHT22;724;49.910;12.530;2024-03-07T03:21:10;-1.10;1.00
1461;DHT22;724;49.910;12.530;2024-03-07T03:23:36;-1.10;1.00
1461;DHT22;724;49.910;12.530;2024-03-07T03:26:03;-1.00;1.00
1461;DHT22;724;49.910;12.530;2024-03-07T03:28:30;-1.10;99.90
1461;DHT22;724;49.910;12.530;2024-03-07T03:30:58;-1.00;99.90
1461;DHT22;724;49.910;12.530;2024-03-07T03:33:25;-1.00;99.90
1461;DHT22;724;49.910;12.530;2024-03-07T03:35:52;-0.90;1.00
1461;DHT22;724;49.910;12.530;2024-03-07T03:38:20;-0.90;1.00
1461;DHT22;724;49.910;12.530;2024-03-07T03:40:47;-0.70;1.00
1461;DHT22;724;49.910;12.530;2024-03-07T03:43:14;-0.60;1.00
1461;DHT22;724;49.910;12.530;2024-03-07T03:45:41;-0.40;1.00
1461;DHT22;724;49.910;12.530;2024-03-07T03:48:09;-0.30;1.00
1461;DHT22;724;49.910;12.530;2024-03-07T03:50:35;-0.30;1.00
1461;DHT22;724;49.910;12.530;2024-03-07T03:53:02;-0.20;1.00
1461;DHT22;724;49.910;12.530;2024-03-07T03:55:31;-0.40;1.00
1461;DHT22;724;49.910;12.530;2024-03-07T03:57:58;-0.50;1.00
1461;DHT22;724;49.910;12.530;2024-03-07T04:00:25;-0.60;1.00
1461;DHT22;724;49.910;12.530;2024-03-07T04:02:52;-0.60;1.00
1461;DHT22;724;49.910;12.530;2024-03-07T04:05:20;-0.60;1.00
1461;DHT22;724;49.910;12.530;2024-03-07T04:07:48;-0.60;1.00
1461;DHT22;724;49.910;12.530;2024-03-07T04:10:16;-0.70;1.00
1461;DHT22;724;49.910;12.530;2024-03-07T04:12:43;-0.70;1.00
1461;DHT22;724;49.910;12.530;2024-03-07T04:15:10;-0.70;1.00
1461;DHT22;724;49.910;12.530;2024-03-07T04:17:38;-0.60;1.00
1461;DHT22;724;49.910;12.530;2024-03-07T04:20:06;-0.40;1.00
1461;DHT22;724;49.910;12.530;2024-03-07T04:22:34;-0.50;1.00
1461;DHT22;724;49.910;12.530;2024-03-07T04:25:05;-0.60;1.00
1461;DHT22;724;49.910;12.530;2024-03-07T04:27:32;-0.40;1.00
1461;DHT22;724;49.910;12.530;2024-03-07T04:29:59;-0.40;1.00
1461;DHT22;724;49.910;12.530;2024-03-07T04:32:28;-0.30;1.00
1461;DHT22;724;49.910;12.530;2024-03-07T04:34:55;-0.30;1.00
1461;DHT22;724;49.910;12.530;2024-03-07T04:37:22;-0.40;1.00
1461;DHT22;724;49.910;12.530;2024-03-07T04:39:51;-0.40;1.00
1461;DHT22;724;49.910;12.530;2024-03-07T04:42:18;-0.20;90.00
1461;DHT22;724;49.910;12.530;2024-03-07T04:44:46;-0.10;71.00
1461;DHT22;724;49.910;12.530;2024-03-07T04:47:15;-0.10;98.10
1461;DHT22;724;49.910;12.530;2024-03-07T04:49:42;0.00;99.90
1461;DHT22;724;49.910;12.530;2024-03-07T04:52:10;0.00;99.90
1461;DHT22;724;49.910;12.530;2024-03-07T04:54:37;0.00;99.90
1461;DHT22;724;49.910;12.530;2024-03-07T04:57:05;0.10;99.90
1461;DHT22;724;49.910;12.530;2024-03-07T04:59:32;0.30;99.90
1461;DHT22;724;49.910;12.530;2024-03-07T05:01:58;0.40;99.90
1461;DHT22;724;49.910;12.530;2024-03-07T05:04:25;0.50;99.90
1461;DHT22;724;49.910;12.530;2024-03-07T05:06:54;0.40;99.90
1461;DHT22;724;49.910;12.530;2024-03-07T05:09:23;0.30;99.90
1461;DHT22;724;49.910;12.530;2024-03-07T05:11:51;0.30;99.90
1461;DHT22;724;49.910;12.530;2024-03-07T05:14:19;0.40;99.90
1461;DHT22;724;49.910;12.530;2024-03-07T05:16:47;0.50;99.90
1461;DHT22;724;49.910;12.530;2024-03-07T05:19:27;0.50;99.90
1461;DHT22;724;49.910;12.530;2024-03-07T05:21:55;0.50;99.90
1461;DHT22;724;49.910;12.530;2024-03-07T05:24:22;0.60;99.90
1461;DHT22;724;49.910;12.530;2024-03-07T05:26:48;0.60;99.90
1461;DHT22;724;49.910;12.530;2024-03-07T05:29:16;0.60;99.90
1461;DHT22;724;49.910;12.530;2024-03-07T05:31:44;0.60;99.90
1461;DHT22;724;49.910;12.530;2024-03-07T05:34:12;0.60;99.90
1461;DHT22;724;49.910;12.530;2024-03-07T05:36:40;0.60;99.90
1461;DHT22;724;49.910;12.530;2024-03-07T05:39:10;0.60;99.90
1461;DHT22;724;49.910;12.530;2024-03-07T05:41:38;0.70;99.90
1461;DHT22;724;49.910;12.530;2024-03-07T05:44:05;0.80;99.90
1461;DHT22;724;49.910;12.530;2024-03-07T05:46:34;0.70;99.90
1461;DHT22;724;49.910;12.530;2024-03-07T05:49:04;0.70;99.90
1461;DHT22;724;49.910;12.530;2024-03-07T05:51:31;0.80;99.90
1461;DHT22;724;49.910;12.530;2024-03-07T05:53:57;0.80;99.90
1461;DHT22;724;49.910;12.530;2024-03-07T05:56:24;0.90;99.90
1461;DHT22;724;49.910;12.530;2024-03-07T05:58:51;0.90;99.90
1461;DHT22;724;49.910;12.530;2024-03-07T06:01:17;0.90;99.90
1461;DHT22;724;49.910;12.530;2024-03-07T06:03:44;0.90;99.90
1461;DHT22;724;49.910;12.530;2024-03-07T06:06:15;1.00;99.90
1461;DHT22;724;49.910;12.530;2024-03-07T06:08:42;1.00;99.90
1461;DHT22;724;49.910;12.530;2024-03-07T06:11:10;1.00;99.90
1461;DHT22;724;49.910;12.530;2024-03-07T06:13:38;1.10;99.90
1461;DHT22;724;49.910;12.530;2024-03-07T06:16:05;1.10;99.90
1461;DHT22;724;49.910;12.530;2024-03-07T06:18:34;1.10;99.90
1461;DHT22;724;49.910;12.530;2024-03-07T06:21:00;1.20;99.90
1461;DHT22;724;49.910;12.530;2024-03-07T06:23:31;1.20;99.90
1461;DHT22;724;49.910;12.530;2024-03-07T06:25:58;1.20;99.90
1461;DHT22;724;49.910;12.530;2024-03-07T06:28:26;1.10;99.90
1461;DHT22;724;49.910;12.530;2024-03-07T06:30:54;1.10;99.90
1461;DHT22;724;49.910;12.530;2024-03-07T06:33:21;1.20;99.90
1461;DHT22;724;49.910;12.530;2024-03-07T06:35:48;1.20;24.10
1461;DHT22;724;49.910;12.530;2024-03-07T06:38:17;1.30;1.00
1461;DHT22;724;49.910;12.530;2024-03-07T06:40:45;1.30;1.00
1461;DHT22;724;49.910;12.530;2024-03-07T06:43:12;1.40;1.00
1461;DHT22;724;49.910;12.530;2024-03-07T06:45:39;1.40;1.00
1461;DHT22;724;49.910;12.530;2024-03-07T06:48:07;1.50;1.00
1461;DHT22;724;49.910;12.530;2024-03-07T06:50:35;1.50;1.00
1461;DHT22;724;49.910;12.530;2024-03-07T06:53:01;1.50;99.90
1461;DHT22;724;49.910;12.530;2024-03-07T06:55:28;1.50;99.90
1461;DHT22;724;49.910;12.530;2024-03-07T06:57:57;1.60;99.90
1461;DHT22;724;49.910;12.530;2024-03-07T07:00:24;1.60;99.90
1461;DHT22;724;49.910;12.530;2024-03-07T07:02:52;1.50;99.90
1461;DHT22;724;49.910;12.530;2024-03-07T07:05:20;1.60;99.90
1461;DHT22;724;49.910;12.530;2024-03-07T07:07:47;1.70;71.20
1461;DHT22;724;49.910;12.530;2024-03-07T07:10:14;1.70;1.00
1461;DHT22;724;49.910;12.530;2024-03-07T07:12:44;1.80;1.00
1461;DHT22;724;49.910;12.530;2024-03-07T07:15:13;1.80;1.00
1461;DHT22;724;49.910;12.530;2024-03-07T07:17:41;1.80;1.00
1461;DHT22;724;49.910;12.530;2024-03-07T07:20:11;1.80;1.00
1461;DHT22;724;49.910;12.530;2024-03-07T07:22:40;1.90;1.00
1461;DHT22;724;49.910;12.530;2024-03-07T07:25:08;1.90;1.00
1461;DHT22;724;49.910;12.530;2024-03-07T07:27:40;1.90;1.00
1461;DHT22;724;49.910;12.530;2024-03-07T07:30:08;2.00;1.00
1461;DHT22;724;49.910;12.530;2024-03-07T07:32:37;1.90;1.00
1461;DHT22;724;49.910;12.530;2024-03-07T07:35:04;1.90;1.00
1461;DHT22;724;49.910;12.530;2024-03-07T07:37:35;1.80;1.00
1461;DHT22;724;49.910;12.530;2024-03-07T07:40:02;1.80;99.90
1461;DHT22;724;49.910;12.530;2024-03-07T07:42:29;2.10;1.00
1461;DHT22;724;49.910;12.530;2024-03-07T07:44:56;2.00;99.90
1461;DHT22;724;49.910;12.530;2024-03-07T07:47:22;2.20;99.90
1461;DHT22;724;49.910;12.530;2024-03-07T07:49:51;2.10;99.90
1461;DHT22;724;49.910;12.530;2024-03-07T07:52:17;2.20;56.20
1461;DHT22;724;49.910;12.530;2024-03-07T07:54:44;2.50;1.00
1461;DHT22;724;49.910;12.530;2024-03-07T07:57:11;2.30;1.00
1461;DHT22;724;49.910;12.530;2024-03-07T07:59:38;2.20;1.00
1461;DHT22;724;49.910;12.530;2024-03-07T08:02:05;2.10;1.00
1461;DHT22;724;49.910;12.530;2024-03-07T08:04:32;2.10;1.00
1461;DHT22;724;49.910;12.530;2024-03-07T08:07:00;2.30;1.00
1461;DHT22;724;49.910;12.530;2024-03-07T08:09:27;2.20;99.90
1461;DHT22;724;49.910;12.530;2024-03-07T08:11:54;2.20;99.90
1461;DHT22;724;49.910;12.530;2024-03-07T08:14:21;2.60;99.90
1461;DHT22;724;49.910;12.530;2024-03-07T08:16:49;2.40;99.90
1461;DHT22;724;49.910;12.530;2024-03-07T08:19:16;2.30;99.90
1461;DHT22;724;49.910;12.530;2024-03-07T08:21:43;2.30;99.90
1461;DHT22;724;49.910;12.530;2024-03-07T08:24:11;2.30;99.90
1461;DHT22;724;49.910;12.530;2024-03-07T08:26:38;2.40;99.90
1461;DHT22;724;49.910;12.530;2024-03-07T08:29:09;2.40;99.90
1461;DHT22;724;49.910;12.530;2024-03-07T08:31:36;2.50;99.90
1461;DHT22;724;49.910;12.530;2024-03-07T08:34:03;2.50;99.90
1461;DHT22;724;49.910;12.530;2024-03-07T08:36:30;2.50;91.40
1461;DHT22;724;49.910;12.530;2024-03-07T08:38:56;2.60;10.40
1461;DHT22;724;49.910;12.530;2024-03-07T08:41:24;2.60;1.00
1461;DHT22;724;49.910;12.530;2024-03-07T08:43:51;2.60;1.00
1461;DHT22;724;49.910;12.530;2024-03-07T08:46:18;2.60;1.00
1461;DHT22;724;49.910;12.530;2024-03-07T08:48:45;2.40;1.00
1461;DHT22;724;49.910;12.530;2024-03-07T08:51:11;2.60;1.00
1461;DHT22;724;49.910;12.530;2024-03-07T08:53:38;2.50;1.00
1461;DHT22;724;49.910;12.530;2024-03-07T08:56:05;2.20;1.00
1461;DHT22;724;49.910;12.530;2024-03-07T08:58:35;2.00;1.00
1461;DHT22;724;49.910;12.530;2024-03-07T09:01:02;1.80;5.10
1461;DHT22;724;49.910;12.530;2024-03-07T09:03:28;1.90;99.90
1461;DHT22;724;49.910;12.530;2024-03-07T09:05:55;2.00;99.90
1461;DHT22;724;49.910;12.530;2024-03-07T09:08:23;1.90;13.60
1461;DHT22;724;49.910;12.530;2024-03-07T09:10:50;1.80;1.00
1461;DHT22;724;49.910;12.530;2024-03-07T09:13:20;1.80;1.00
1461;DHT22;724;49.910;12.530;2024-03-07T09:15:48;1.70;1.00
1461;DHT22;724;49.910;12.530;2024-03-07T09:18:15;1.80;19.00
1461;DHT22;724;49.910;12.530;2024-03-07T09:20:42;1.90;99.90
1461;DHT22;724;49.910;12.530;2024-03-07T09:23:09;2.00;97.90
1461;DHT22;724;49.910;12.530;2024-03-07T09:25:35;2.10;74.10
1461;DHT22;724;49.910;12.530;2024-03-07T09:28:02;2.10;1.00
1461;DHT22;724;49.910;12.530;2024-03-07T09:30:29;2.20;1.00
1461;DHT22;724;49.910;12.530;2024-03-07T09:32:57;2.00;1.00
1461;DHT22;724;49.910;12.530;2024-03-07T09:35:24;1.90;1.00
1461;DHT22;724;49.910;12.530;2024-03-07T09:37:51;1.90;1.00
1461;DHT22;724;49.910;12.530;2024-03-07T09:40:18;2.00;1.00
1461;DHT22;724;49.910;12.530;2024-03-07T09:42:50;2.10;1.00
1461;DHT22;724;49.910;12.530;2024-03-07T09:45:19;2.20;62.60
1461;DHT22;724;49.910;12.530;2024-03-07T09:47:47;2.30;99.90
1461;DHT22;724;49.910;12.530;2024-03-07T09:50:18;2.00;99.90
1461;DHT22;724;49.910;12.530;2024-03-07T09:52:47;2.40;99.90
1461;DHT22;724;49.910;12.530;2024-03-07T09:55:16;2.50;1.00
1461;DHT22;724;49.910;12.530;2024-03-07T09:57:43;2.60;1.00
1461;DHT22;724;49.910;12.530;2024-03-07T10:00:12;2.70;1.00
1461;DHT22;724;49.910;12.530;2024-03-07T10:02:50;2.70;1.00
1461;DHT22;724;49.910;12.530;2024-03-07T10:05:22;3.10;1.00
1461;DHT22;724;49.910;12.530;2024-03-07T10:07:51;3.10;1.00
1461;DHT22;724;49.910;12.530;2024-03-07T10:10:18;3.10;1.00
1461;DHT22;724;49.910;12.530;2024-03-07T10:12:45;2.80;1.00
1461;DHT22;724;49.910;12.530;2024-03-07T10:15:12;3.20;1.00
1461;DHT22;724;49.910;12.530;2024-03-07T10:17:39;2.90;99.90
1461;DHT22;724;49.910;12.530;2024-03-07T10:20:07;2.70;99.90
1461;DHT22;724;49.910;12.530;2024-03-07T10:22:40;2.80;99.90
1461;DHT22;724;49.910;12.530;2024-03-07T10:25:07;2.60;99.90
1461;DHT22;724;49.910;12.530;2024-03-07T10:27:37;2.50;99.90
1461;DHT22;724;49.910;12.530;2024-03-07T10:30:05;2.70;99.90
1461;DHT22;724;49.910;12.530;2024-03-07T10:32:33;2.70;99.90
1461;DHT22;724;49.910;12.530;2024-03-07T10:35:01;3.00;99.90
1461;DHT22;724;49.910;12.530;2024-03-07T10:37:29;3.10;99.90
1461;DHT22;724;49.910;12.530;2024-03-07T10:39:58;2.60;99.90
1461;DHT22;724;49.910;12.530;2024-03-07T10:42:28;2.60;99.90
1461;DHT22;724;49.910;12.530;2024-03-07T10:44:59;2.70;99.90
1461;DHT22;724;49.910;12.530;2024-03-07T10:47:29;2.70;99.90
1461;DHT22;724;49.910;12.530;2024-03-07T10:50:05;2.80;99.90
1461;DHT22;724;49.910;12.530;2024-03-07T10:52:46;2.80;99.90
1461;DHT22;724;49.910;12.530;2024-03-07T10:55:23;2.80;99.90
1461;DHT22;724;49.910;12.530;2024-03-07T10:57:56;2.70;1.00
1461;DHT22;724;49.910;12.530;2024-03-07T11:00:30;2.70;1.00
1461;DHT22;724;49.910;12.530;2024-03-07T11:03:02;2.70;1.00
1461;DHT22;724;49.910;12.530;2024-03-07T11:05:33;2.50;1.00
1461;DHT22;724;49.910;12.530;2024-03-07T11:08:00;2.50;1.00
1461;DHT22;724;49.910;12.530;2024-03-07T11:10:34;2.40;1.00
1461;DHT22;724;49.910;12.530;2024-03-07T11:13:03;2.40;1.00
1461;DHT22;724;49.910;12.530;2024-03-07T11:15:30;2.40;1.00
1461;DHT22;724;49.910;12.530;2024-03-07T11:17:58;2.40;1.00
1461;DHT22;724;49.910;12.530;2024-03-07T11:20:26;2.30;1.00
1461;DHT22;724;49.910;12.530;2024-03-07T11:22:53;2.10;1.00
1461;DHT22;724;49.910;12.530;2024-03-07T11:25:21;2.10;1.00
1461;DHT22;724;49.910;12.530;2024-03-07T11:27:55;2.10;1.00
1461;DHT22;724;49.910;12.530;2024-03-07T11:30:22;2.30;1.00
1461;DHT22;724;49.910;12.530;2024-03-07T11:32:49;2.30;1.00
1461;DHT22;724;49.910;12.530;2024-03-07T11:35:19;2.20;1.00
1461;DHT22;724;49.910;12.530;2024-03-07T11:37:56;2.10;1.00
1461;DHT22;724;49.910;12.530;2024-03-07T11:40:44;2.10;1.00
1461;DHT22;724;49.910;12.530;2024-03-07T11:43:13;2.40;1.00
1461;DHT22;724;49.910;12.530;2024-03-07T11:45:40;2.50;1.00
1461;DHT22;724;49.910;12.530;2024-03-07T11:48:11;2.30;1.00
1461;DHT22;724;49.910;12.530;2024-03-07T11:50:39;2.10;1.00
1461;DHT22;724;49.910;12.530;2024-03-07T11:53:07;2.30;1.00
1461;DHT22;724;49.910;12.530;2024-03-07T11:55:34;2.50;1.00
1461;DHT22;724;49.910;12.530;2024-03-07T11:58:07;2.60;1.00
1461;DHT22;724;49.910;12.530;2024-03-07T12:00:35;2.70;1.00
1461;DHT22;724;49.910;12.530;2024-03-07T12:03:02;2.80;1.00
1461;DHT22;724;49.910;12.530;2024-03-07T12:05:32;2.90;1.00
1461;DHT22;724;49.910;12.530;2024-03-07T12:08:03;3.20;1.00
1461;DHT22;724;49.910;12.530;2024-03-07T12:10:31;3.30;1.00
1461;DHT22;724;49.910;12.530;2024-03-07T12:12:59;3.10;99.90
1461;DHT22;724;49.910;12.530;2024-03-07T12:15:27;3.00;99.90
1461;DHT22;724;49.910;12.530;2024-03-07T12:17:55;3.10;99.90
1461;DHT22;724;49.910;12.530;2024-03-07T12:20:23;3.00;99.90
1461;DHT22;724;49.910;12.530;2024-03-07T12:22:56;2.80;98.90
1461;DHT22;724;49.910;12.530;2024-03-07T12:25:23;2.90;93.80
1461;DHT22;724;49.910;12.530;2024-03-07T12:27:59;2.90;90.90
1461;DHT22;724;49.910;12.530;2024-03-07T12:30:28;3.00;79.70
1461;DHT22;724;49.910;12.530;2024-03-07T12:33:00;2.70;1.00
1461;DHT22;724;49.910;12.530;2024-03-07T12:35:29;2.70;1.00
1461;DHT22;724;49.910;12.530;2024-03-07T12:37:56;2.80;9.40
1461;DHT22;724;49.910;12.530;2024-03-07T12:40:23;2.80;1.00
1461;DHT22;724;49.910;12.530;2024-03-07T12:42:51;2.90;1.00
1461;DHT22;724;49.910;12.530;2024-03-07T12:45:19;3.00;1.00
1461;DHT22;724;49.910;12.530;2024-03-07T12:47:46;3.00;1.00
1461;DHT22;724;49.910;12.530;2024-03-07T12:50:17;3.10;1.00
1461;DHT22;724;49.910;12.530;2024-03-07T12:52:46;3.20;1.00
1461;DHT22;724;49.910;12.530;2024-03-07T12:55:15;2.70;1.00
1461;DHT22;724;49.910;12.530;2024-03-07T12:57:44;2.80;1.00
1461;DHT22;724;49.910;12.530;2024-03-07T13:00:11;2.80;1.00
1461;DHT22;724;49.910;12.530;2024-03-07T13:02:45;3.00;1.00
1461;DHT22;724;49.910;12.530;2024-03-07T13:05:12;2.90;1.00
1461;DHT22;724;49.910;12.530;2024-03-07T13:07:45;3.10;1.00
1461;DHT22;724;49.910;12.530;2024-03-07T13:10:14;2.80;1.00
1461;DHT22;724;49.910;12.530;2024-03-07T13:12:42;2.60;1.00
1461;DHT22;724;49.910;12.530;2024-03-07T13:15:11;2.40;1.00
1461;DHT22;724;49.910;12.530;2024-03-07T13:17:38;2.70;1.00
1461;DHT22;724;49.910;12.530;2024-03-07T13:20:05;2.70;1.00
1461;DHT22;724;49.910;12.530;2024-03-07T13:22:40;2.50;1.00
1461;DHT22;724;49.910;12.530;2024-03-07T13:25:11;2.50;1.00
1461;DHT22;724;49.910;12.530;2024-03-07T13:27:42;2.50;1.00
1461;DHT22;724;49.910;12.530;2024-03-07T13:30:11;2.50;1.00
1461;DHT22;724;49.910;12.530;2024-03-07T13:32:50;2.50;1.00
1461;DHT22;724;49.910;12.530;2024-03-07T13:35:18;2.90;1.00
1461;DHT22;724;49.910;12.530;2024-03-07T13:37:46;2.90;1.00
1461;DHT22;724;49.910;12.530;2024-03-07T13:40:15;2.70;1.00
1461;DHT22;724;49.910;12.530;2024-03-07T13:42:55;2.80;1.00
1461;DHT22;724;49.910;12.530;2024-03-07T13:45:24;2.70;1.00
1461;DHT22;724;49.910;12.530;2024-03-07T13:47:53;2.80;1.00
1461;DHT22;724;49.910;12.530;2024-03-07T13:50:23;2.60;1.00
1461;DHT22;724;49.910;12.530;2024-03-07T13:52:50;2.60;1.00
1461;DHT22;724;49.910;12.530;2024-03-07T13:55:46;2.80;1.00
1461;DHT22;724;49.910;12.530;2024-03-07T13:58:35;3.20;1.00
1461;DHT22;724;49.910;12.530;2024-03-07T14:01:23;2.90;1.00
1461;DHT22;724;49.910;12.530;2024-03-07T14:04:28;3.10;1.00
1461;DHT22;724;49.910;12.530;2024-03-07T14:07:12;2.90;1.00
1461;DHT22;724;49.910;12.530;2024-03-07T14:09:56;3.00;1.00
1461;DHT22;724;49.910;12.530;2024-03-07T14:12:47;3.20;1.00
1461;DHT22;724;49.910;12.530;2024-03-07T14:15:54;3.00;1.00
1461;DHT22;724;49.910;12.530;2024-03-07T14:21:58;3.50;1.00
1461;DHT22;724;49.910;12.530;2024-03-07T14:27:51;3.40;1.00
1461;DHT22;724;49.910;12.530;2024-03-07T14:30:27;3.30;1.00
1461;DHT22;724;49.910;12.530;2024-03-07T14:33:06;3.30;1.00
1461;DHT22;724;49.910;12.530;2024-03-07T14:38:25;3.00;1.00
1461;DHT22;724;49.910;12.530;2024-03-07T14:40:53;2.70;1.00
1461;DHT22;724;49.910;12.530;2024-03-07T14:43:22;2.50;1.00
1461;DHT22;724;49.910;12.530;2024-03-07T14:45:49;2.50;1.00
1461;DHT22;724;49.910;12.530;2024-03-07T14:48:21;2.60;1.00
1461;DHT22;724;49.910;12.530;2024-03-07T14:50:47;2.50;1.00
1461;DHT22;724;49.910;12.530;2024-03-07T14:53:15;2.50;1.00
1461;DHT22;724;49.910;12.530;2024-03-07T14:55:43;2.50;1.00
1461;DHT22;724;49.910;12.530;2024-03-07T14:58:10;2.40;1.00
1461;DHT22;724;49.910;12.530;2024-03-07T15:00:42;2.30;1.00
1461;DHT22;724;49.910;12.530;2024-03-07T15:03:15;2.30;1.00
1461;DHT22;724;49.910;12.530;2024-03-07T15:05:44;2.40;1.00
1461;DHT22;724;49.910;12.530;2024-03-07T15:08:12;2.20;1.00
1461;DHT22;724;49.910;12.530;2024-03-07T15:10:44;2.30;1.00
1461;DHT22;724;49.910;12.530;2024-03-07T15:13:12;2.30;1.00
1461;DHT22;724;49.910;12.530;2024-03-07T15:15:39;2.30;1.00
1461;DHT22;724;49.910;12.530;2024-03-07T15:18:09;2.30;1.00
1461;DHT22;724;49.910;12.530;2024-03-07T15:20:36;2.40;1.00
1461;DHT22;724;49.910;12.530;2024-03-07T15:23:03;2.30;1.00
1461;DHT22;724;49.910;12.530;2024-03-07T15:25:32;2.20;1.00
1461;DHT22;724;49.910;12.530;2024-03-07T15:28:00;2.40;1.00
1461;DHT22;724;49.910;12.530;2024-03-07T15:30:27;2.30;1.00
1461;DHT22;724;49.910;12.530;2024-03-07T15:32:58;2.30;1.00
1461;DHT22;724;49.910;12.530;2024-03-07T15:35:26;2.40;1.00
1461;DHT22;724;49.910;12.530;2024-03-07T15:37:53;2.30;1.00
1461;DHT22;724;49.910;12.530;2024-03-07T15:40:21;2.20;1.00
1461;DHT22;724;49.910;12.530;2024-03-07T15:42:50;2.30;1.00
1461;DHT22;724;49.910;12.530;2024-03-07T15:45:18;2.20;1.00
1461;DHT22;724;49.910;12.530;2024-03-07T15:47:46;2.20;1.00
1461;DHT22;724;49.910;12.530;2024-03-07T15:50:14;2.00;1.00
1461;DHT22;724;49.910;12.530;2024-03-07T15:52:46;2.10;1.00
1461;DHT22;724;49.910;12.530;2024-03-07T15:55:13;2.10;1.00
1461;DHT22;724;49.910;12.530;2024-03-07T15:57:47;2.20;1.00
1461;DHT22;724;49.910;12.530;2024-03-07T16:00:16;2.30;1.00
1461;DHT22;724;49.910;12.530;2024-03-07T16:02:53;2.20;1.00
1461;DHT22;724;49.910;12.530;2024-03-07T16:05:22;2.10;1.00
1461;DHT22;724;49.910;12.530;2024-03-07T16:07:51;2.10;1.00
1461;DHT22;724;49.910;12.530;2024-03-07T16:10:18;2.10;1.00
1461;DHT22;724;49.910;12.530;2024-03-07T16:12:45;2.10;1.00
1461;DHT22;724;49.910;12.530;2024-03-07T16:15:12;2.10;1.00
1461;DHT22;724;49.910;12.530;2024-03-07T16:17:39;2.10;1.00
1461;DHT22;724;49.910;12.530;2024-03-07T16:20:07;2.10;1.00
1461;DHT22;724;49.910;12.530;2024-03-07T16:22:38;2.10;1.00
1461;DHT22;724;49.910;12.530;2024-03-07T16:25:08;2.00;1.00
1461;DHT22;724;49.910;12.530;2024-03-07T16:27:36;2.00;1.00
1461;DHT22;724;49.910;12.530;2024-03-07T16:30:04;2.00;1.00
1461;DHT22;724;49.910;12.530;2024-03-07T16:32:33;1.90;1.00
1461;DHT22;724;49.910;12.530;2024-03-07T16:35:00;1.90;1.00
1461;DHT22;724;49.910;12.530;2024-03-07T16:37:32;2.00;1.00
1461;DHT22;724;49.910;12.530;2024-03-07T16:39:59;1.90;1.00
1461;DHT22;724;49.910;12.530;2024-03-07T16:42:27;1.90;1.00
1461;DHT22;724;49.910;12.530;2024-03-07T16:44:54;1.90;1.00